sensor_id;sensor_type;location;lat;lon;timestamp;pressure;altitude;pressure_sealevel;temperature;humidity
29379;BME280;16362;47.202;15.258;2023-02-18T00:00:27;96641.56;;;3.76;100.00
29379;BME280;16362;47.202;15.258;2023-02-18T00:02:54;96629.22;;;3.76;100.00
29379;BME280;16362;47.202;15.258;2023-02-18T00:05:23;96622.97;;;3.77;100.00
29379;BME280;16362;47.202;15.258;2023-02-18T00:07:50;96628.03;;;3.80;100.00
29379;BME280;16362;47.202;15.258;2023-02-18T00:10:17;96624.03;;;3.86;100.00
29379;BME280;16362;47.202;15.258;2023-02-18T00:12:44;96622.66;;;4.03;100.00
29379;BME280;16362;47.202;15.258;2023-02-18T00:15:11;96626.97;;;4.04;100.00
29379;BME280;16362;47.202;15.258;2023-02-18T00:17:38;96625.22;;;4.26;100.00
29379;BME280;16362;47.202;15.258;2023-02-18T00:20:06;96626.66;;;4.30;100.00
29379;BME280;16362;47.202;15.258;2023-02-18T00:22:33;96630.97;;;4.31;100.00
29379;BME280;16362;47.202;15.258;2023-02-18T00:24:59;96617.06;;;4.50;100.00
29379;BME280;16362;47.202;15.258;2023-02-18T00:27:26;96618.91;;;4.38;100.00
29379;BME280;16362;47.202;15.258;2023-02-18T00:29:53;96613.63;;;4.38;100.00
29379;BME280;16362;47.202;15.258;2023-02-18T00:32:20;96630.22;;;4.40;100.00
29379;BME280;16362;47.202;15.258;2023-02-18T00:34:46;96623.91;;;4.52;100.00
29379;BME280;16362;47.202;15.258;2023-02-18T00:37:13;96607.47;;;4.70;100.00
29379;BME280;16362;47.202;15.258;2023-02-18T00:39:40;96609.59;;;4.55;100.00
29379;BME280;16362;47.202;15.258;2023-02-18T00:42:06;96622.84;;;4.44;100.00
29379;BME280;16362;47.202;15.258;2023-02-18T00:44:33;96625.72;;;4.52;100.00
29379;BME280;16362;47.202;15.258;2023-02-18T00:47:00;96617.97;;;4.81;100.00
29379;BME280;16362;47.202;15.258;2023-02-18T00:49:26;96615.50;;;4.89;100.00
29379;BME280;16362;47.202;15.258;2023-02-18T00:51:53;96613.91;;;4.77;100.00
29379;BME280;16362;47.202;15.258;2023-02-18T00:54:20;96620.22;;;4.65;100.00
29379;BME280;16362;47.202;15.258;2023-02-18T00:56:46;96604.78;;;4.91;100.00
29379;BME280;16362;47.202;15.258;2023-02-18T00:59:13;96624.22;;;4.80;100.00
29379;BME280;16362;47.202;15.258;2023-02-18T01:01:40;96618.75;;;4.72;100.00
29379;BME280;16362;47.202;15.258;2023-02-18T01:04:07;96621.78;;;4.88;100.00
29379;BME280;16362;47.202;15.258;2023-02-18T01:06:33;96623.06;;;4.94;100.00
29379;BME280;16362;47.202;15.258;2023-02-18T01:09:00;96617.47;;;4.87;100.00
29379;BME280;16362;47.202;15.258;2023-02-18T01:15:20;96616.03;;;4.83;100.00
29379;BME280;16362;47.202;15.258;2023-02-18T01:17:47;96602.78;;;4.74;100.00
29379;BME280;16362;47.202;15.258;2023-02-18T01:20:14;96605.34;;;4.85;100.00
29379;BME280;16362;47.202;15.258;2023-02-18T01:22:41;96610.44;;;4.77;100.00
29379;BME280;16362;47.202;15.258;2023-02-18T01:25:08;96609.56;;;4.97;100.00
29379;BME280;16362;47.202;15.258;2023-02-18T01:27:36;96610.66;;;4.95;100.00
29379;BME280;16362;47.202;15.258;2023-02-18T01:30:04;96609.44;;;4.99;100.00
29379;BME280;16362;47.202;15.258;2023-02-18T01:32:31;96614.91;;;5.07;100.00
29379;BME280;16362;47.202;15.258;2023-02-18T01:35:00;96606.16;;;5.06;100.00
29379;BME280;16362;47.202;15.258;2023-02-18T01:37:28;96611.25;;;4.98;100.00
29379;BME280;16362;47.202;15.258;2023-02-18T01:39:54;96610.53;;;4.96;100.00
29379;BME280;16362;47.202;15.258;2023-02-18T01:42:24;96607.56;;;4.89;100.00
29379;BME280;16362;47.202;15.258;2023-02-18T01:44:52;96621.66;;;4.69;100.00
29379;BME280;16362;47.202;15.258;2023-02-18T01:47:19;96607.41;;;4.60;100.00
29379;BME280;16362;47.202;15.258;2023-02-18T01:49:49;96615.16;;;4.52;100.00
29379;BME280;16362;47.202;15.258;2023-02-18T01:52:22;96592.47;;;4.49;100.00
29379;BME280;16362;47.202;15.258;2023-02-18T01:54:55;96591.16;;;4.65;100.00
29379;BME280;16362;47.202;15.258;2023-02-18T01:57:32;96596.66;;;4.52;100.00
29379;BME280;16362;47.202;15.258;2023-02-18T02:00:09;96592.81;;;4.45;100.00
29379;BME280;16362;47.202;15.258;2023-02-18T02:02:41;96591.22;;;4.53;100.00
29379;BME280;16362;47.202;15.258;2023-02-18T02:05:08;96602.16;;;4.49;100.00
29379;BME280;16362;47.202;15.258;2023-02-18T02:07:34;96607.59;;;4.47;100.00
29379;BME280;16362;47.202;15.258;2023-02-18T02:10:02;96586.06;;;4.73;100.00
29379;BME280;16362;47.202;15.258;2023-02-18T02:18:57;96575.75;;;4.70;100.00
29379;BME280;16362;47.202;15.258;2023-02-18T02:27:11;96567.94;;;4.47;100.00
29379;BME280;16362;47.202;15.258;2023-02-18T02:35:51;96575.41;;;4.42;100.00
29379;BME280;16362;47.202;15.258;2023-02-18T02:41:38;96561.31;;;4.53;100.00
29379;BME280;16362;47.202;15.258;2023-02-18T02:46:30;96539.19;;;4.54;100.00
29379;BME280;16362;47.202;15.258;2023-02-18T02:52:05;96550.41;;;4.67;100.00
29379;BME280;16362;47.202;15.258;2023-02-18T02:54:33;96556.78;;;4.65;100.00
29379;BME280;16362;47.202;15.258;2023-02-18T02:57:40;96546.84;;;4.78;100.00
29379;BME280;16362;47.202;15.258;2023-02-18T03:00:00;96547.91;;;4.66;100.00
29379;BME280;16362;47.202;15.258;2023-02-18T03:02:52;96553.63;;;4.50;100.00
29379;BME280;16362;47.202;15.258;2023-02-18T03:05:38;96549.75;;;4.33;100.00
29379;BME280;16362;47.202;15.258;2023-02-18T03:11:02;96547.63;;;4.48;100.00
29379;BME280;16362;47.202;15.258;2023-02-18T03:13:48;96549.84;;;4.43;100.00
29379;BME280;16362;47.202;15.258;2023-02-18T03:19:00;96547.53;;;4.49;100.00
29379;BME280;16362;47.202;15.258;2023-02-18T03:21:36;96550.19;;;4.80;100.00
29379;BME280;16362;47.202;15.258;2023-02-18T03:24:15;96539.69;;;5.00;100.00
29379;BME280;16362;47.202;15.258;2023-02-18T03:26:47;96545.50;;;4.94;100.00
29379;BME280;16362;47.202;15.258;2023-02-18T03:29:17;96547.19;;;4.95;100.00
29379;BME280;16362;47.202;15.258;2023-02-18T03:31:49;96546.91;;;4.98;100.00
29379;BME280;16362;47.202;15.258;2023-02-18T03:34:23;96542.75;;;4.95;100.00
29379;BME280;16362;47.202;15.258;2023-02-18T03:36:51;96554.16;;;4.96;100.00
29379;BME280;16362;47.202;15.258;2023-02-18T03:39:20;96550.56;;;4.97;100.00
29379;BME280;16362;47.202;15.258;2023-02-18T03:41:49;96548.84;;;5.27;100.00
29379;BME280;16362;47.202;15.258;2023-02-18T03:44:16;96557.31;;;5.20;100.00
29379;BME280;16362;47.202;15.258;2023-02-18T03:46:43;96544.69;;;5.34;100.00
29379;BME280;16362;47.202;15.258;2023-02-18T03:49:12;96540.69;;;5.49;100.00
29379;BME280;16362;47.202;15.258;2023-02-18T03:51:39;96546.53;;;5.43;100.00
29379;BME280;16362;47.202;15.258;2023-02-18T03:54:06;96543.44;;;5.38;100.00
29379;BME280;16362;47.202;15.258;2023-02-18T03:56:34;96548.25;;;5.64;100.00
29379;BME280;16362;47.202;15.258;2023-02-18T03:59:02;96540.19;;;5.75;100.00
29379;BME280;16362;47.202;15.258;2023-02-18T04:01:29;96545.72;;;5.62;100.00
29379;BME280;16362;47.202;15.258;2023-02-18T04:03:55;96542.94;;;5.54;100.00
29379;BME280;16362;47.202;15.258;2023-02-18T04:06:22;96551.25;;;5.49;100.00
29379;BME280;16362;47.202;15.258;2023-02-18T04:08:49;96548.38;;;5.52;100.00
29379;BME280;16362;47.202;15.258;2023-02-18T04:11:16;96550.28;;;5.50;100.00
29379;BME280;16362;47.202;15.258;2023-02-18T04:13:43;96544.56;;;5.45;100.00
29379;BME280;16362;47.202;15.258;2023-02-18T04:16:10;96557.41;;;5.40;100.00
29379;BME280;16362;47.202;15.258;2023-02-18T04:18:37;96552.31;;;5.27;100.00
29379;BME280;16362;47.202;15.258;2023-02-18T04:21:04;96565.97;;;5.22;100.00
29379;BME280;16362;47.202;15.258;2023-02-18T04:23:30;96559.44;;;5.27;100.00
29379;BME280;16362;47.202;15.258;2023-02-18T04:25:57;96553.09;;;5.59;100.00
29379;BME280;16362;47.202;15.258;2023-02-18T04:28:24;96555.50;;;5.62;100.00
29379;BME280;16362;47.202;15.258;2023-02-18T04:30:50;96552.28;;;5.58;100.00
29379;BME280;16362;47.202;15.258;2023-02-18T04:33:17;96552.81;;;5.52;100.00
29379;BME280;16362;47.202;15.258;2023-02-18T04:35:44;96554.25;;;5.66;100.00
29379;BME280;16362;47.202;15.258;2023-02-18T04:38:13;96551.56;;;5.56;100.00
29379;BME280;16362;47.202;15.258;2023-02-18T04:40:40;96549.63;;;5.48;100.00
29379;BME280;16362;47.202;15.258;2023-02-18T04:43:06;96557.69;;;5.47;100.00
29379;BME280;16362;47.202;15.258;2023-02-18T04:45:33;96553.69;;;5.62;100.00
29379;BME280;16362;47.202;15.258;2023-02-18T04:48:00;96547.16;;;5.96;100.00
29379;BME280;16362;47.202;15.258;2023-02-18T04:50:26;96544.41;;;6.07;100.00
29379;BME280;16362;47.202;15.258;2023-02-18T04:52:53;96554.53;;;5.92;100.00
29379;BME280;16362;47.202;15.258;2023-02-18T04:55:20;96559.84;;;5.82;100.00
29379;BME280;16362;47.202;15.258;2023-02-18T04:57:47;96556.91;;;5.85;100.00
29379;BME280;16362;47.202;15.258;2023-02-18T05:00:16;96551.94;;;6.02;100.00
29379;BME280;16362;47.202;15.258;2023-02-18T05:02:44;96553.28;;;5.86;100.00
29379;BME280;16362;47.202;15.258;2023-02-18T05:05:12;96540.38;;;6.03;100.00
29379;BME280;16362;47.202;15.258;2023-02-18T05:07:39;96550.38;;;5.99;100.00
29379;BME280;16362;47.202;15.258;2023-02-18T05:10:09;96552.19;;;5.89;100.00
29379;BME280;16362;47.202;15.258;2023-02-18T05:12:36;96542.41;;;5.89;100.00
29379;BME280;16362;47.202;15.258;2023-02-18T05:15:03;96548.97;;;5.85;100.00
29379;BME280;16362;47.202;15.258;2023-02-18T05:17:30;96540.06;;;5.86;100.00
29379;BME280;16362;47.202;15.258;2023-02-18T05:19:57;96539.97;;;6.07;100.00
29379;BME280;16362;47.202;15.258;2023-02-18T05:22:23;96536.88;;;6.02;100.00
29379;BME280;16362;47.202;15.258;2023-02-18T05:24:50;96549.41;;;5.90;100.00
29379;BME280;16362;47.202;15.258;2023-02-18T05:27:17;96550.66;;;5.96;100.00
29379;BME280;16362;47.202;15.258;2023-02-18T05:29:43;96546.03;;;5.88;100.00
29379;BME280;16362;47.202;15.258;2023-02-18T05:32:10;96553.69;;;5.82;100.00
29379;BME280;16362;47.202;15.258;2023-02-18T05:34:37;96555.28;;;6.23;100.00
29379;BME280;16362;47.202;15.258;2023-02-18T05:37:04;96548.59;;;6.39;100.00
29379;BME280;16362;47.202;15.258;2023-02-18T05:39:30;96551.38;;;6.28;100.00
29379;BME280;16362;47.202;15.258;2023-02-18T05:41:57;96559.75;;;6.13;100.00
29379;BME280;16362;47.202;15.258;2023-02-18T05:44:24;96558.91;;;6.13;100.00
29379;BME280;16362;47.202;15.258;2023-02-18T05:46:58;96563.25;;;6.04;100.00
29379;BME280;16362;47.202;15.258;2023-02-18T05:49:25;96567.78;;;5.92;100.00
29379;BME280;16362;47.202;15.258;2023-02-18T05:51:52;96568.38;;;5.86;100.00
29379;BME280;16362;47.202;15.258;2023-02-18T05:54:19;96565.84;;;5.94;100.00
29379;BME280;16362;47.202;15.258;2023-02-18T05:56:46;96554.97;;;5.97;100.00
29379;BME280;16362;47.202;15.258;2023-02-18T05:59:13;96558.59;;;5.86;100.00
29379;BME280;16362;47.202;15.258;2023-02-18T06:01:40;96568.63;;;5.83;100.00
29379;BME280;16362;47.202;15.258;2023-02-18T06:04:07;96566.09;;;5.81;100.00
29379;BME280;16362;47.202;15.258;2023-02-18T06:06:34;96570.59;;;5.90;100.00
29379;BME280;16362;47.202;15.258;2023-02-18T06:09:02;96558.59;;;5.96;100.00
29379;BME280;16362;47.202;15.258;2023-02-18T06:11:28;96555.94;;;5.86;100.00
29379;BME280;16362;47.202;15.258;2023-02-18T06:13:55;96565.56;;;5.87;100.00
29379;BME280;16362;47.202;15.258;2023-02-18T06:16:22;96564.84;;;5.85;100.00
29379;BME280;16362;47.202;15.258;2023-02-18T06:18:49;96562.91;;;5.87;100.00
29379;BME280;16362;47.202;15.258;2023-02-18T06:21:15;96573.50;;;5.87;100.00
29379;BME280;16362;47.202;15.258;2023-02-18T06:23:42;96578.09;;;5.85;100.00
29379;BME280;16362;47.202;15.258;2023-02-18T06:26:09;96568.06;;;5.79;100.00
29379;BME280;16362;47.202;15.258;2023-02-18T06:28:36;96568.59;;;5.73;100.00
29379;BME280;16362;47.202;15.258;2023-02-18T06:31:03;96571.72;;;5.98;100.00
29379;BME280;16362;47.202;15.258;2023-02-18T06:33:30;96566.44;;;5.98;100.00
29379;BME280;16362;47.202;15.258;2023-02-18T06:35:58;96574.47;;;5.86;100.00
29379;BME280;16362;47.202;15.258;2023-02-18T06:38:25;96580.06;;;5.83;100.00
29379;BME280;16362;47.202;15.258;2023-02-18T06:40:52;96575.22;;;6.18;100.00
29379;BME280;16362;47.202;15.258;2023-02-18T06:43:19;96581.22;;;6.10;100.00
29379;BME280;16362;47.202;15.258;2023-02-18T06:45:46;96573.13;;;6.02;100.00
29379;BME280;16362;47.202;15.258;2023-02-18T06:48:13;96578.16;;;6.05;100.00
29379;BME280;16362;47.202;15.258;2023-02-18T06:50:40;96576.06;;;5.99;100.00
29379;BME280;16362;47.202;15.258;2023-02-18T06:53:08;96570.03;;;5.97;100.00
29379;BME280;16362;47.202;15.258;2023-02-18T06:55:35;96572.88;;;6.05;100.00
29379;BME280;16362;47.202;15.258;2023-02-18T06:58:03;96567.69;;;6.43;100.00
29379;BME280;16362;47.202;15.258;2023-02-18T07:00:30;96565.75;;;6.35;100.00
29379;BME280;16362;47.202;15.258;2023-02-18T07:02:58;96577.75;;;6.29;100.00
29379;BME280;16362;47.202;15.258;2023-02-18T07:05:25;96575.09;;;6.29;100.00
29379;BME280;16362;47.202;15.258;2023-02-18T07:07:52;96578.28;;;6.33;100.00
29379;BME280;16362;47.202;15.258;2023-02-18T07:10:18;96581.50;;;6.36;100.00
29379;BME280;16362;47.202;15.258;2023-02-18T07:12:45;96581.38;;;6.38;100.00
29379;BME280;16362;47.202;15.258;2023-02-18T07:15:12;96582.34;;;6.37;100.00
29379;BME280;16362;47.202;15.258;2023-02-18T07:17:39;96585.13;;;6.35;100.00
29379;BME280;16362;47.202;15.258;2023-02-18T07:20:06;96588.19;;;6.70;100.00
29379;BME280;16362;47.202;15.258;2023-02-18T07:22:33;96592.09;;;6.66;100.00
29379;BME280;16362;47.202;15.258;2023-02-18T07:25:00;96595.31;;;6.60;100.00
29379;BME280;16362;47.202;15.258;2023-02-18T07:27:27;96600.72;;;6.68;100.00
29379;BME280;16362;47.202;15.258;2023-02-18T07:29:53;96595.38;;;6.97;100.00
29379;BME280;16362;47.202;15.258;2023-02-18T07:32:20;96602.63;;;6.95;100.00
29379;BME280;16362;47.202;15.258;2023-02-18T07:34:47;96600.97;;;6.84;100.00
29379;BME280;16362;47.202;15.258;2023-02-18T07:37:13;96610.06;;;6.72;100.00
29379;BME280;16362;47.202;15.258;2023-02-18T07:39:41;96608.28;;;6.63;100.00
29379;BME280;16362;47.202;15.258;2023-02-18T07:42:09;96613.31;;;6.66;100.00
29379;BME280;16362;47.202;15.258;2023-02-18T07:44:37;96612.44;;;6.75;100.00
29379;BME280;16362;47.202;15.258;2023-02-18T07:47:05;96617.34;;;6.70;100.00
29379;BME280;16362;47.202;15.258;2023-02-18T07:49:32;96615.94;;;6.76;100.00
29379;BME280;16362;47.202;15.258;2023-02-18T07:51:59;96610.91;;;6.82;100.00
29379;BME280;16362;47.202;15.258;2023-02-18T07:54:26;96619.41;;;6.86;100.00
29379;BME280;16362;47.202;15.258;2023-02-18T07:56:53;96629.88;;;6.97;100.00
29379;BME280;16362;47.202;15.258;2023-02-18T07:59:20;96621.31;;;7.13;100.00
29379;BME280;16362;47.202;15.258;2023-02-18T08:01:47;96630.81;;;7.16;100.00
29379;BME280;16362;47.202;15.258;2023-02-18T08:04:13;96628.88;;;7.08;100.00
29379;BME280;16362;47.202;15.258;2023-02-18T08:06:45;96631.53;;;7.08;100.00
29379;BME280;16362;47.202;15.258;2023-02-18T08:09:13;96636.97;;;7.06;100.00
29379;BME280;16362;47.202;15.258;2023-02-18T08:11:39;96619.34;;;7.15;100.00
29379;BME280;16362;47.202;15.258;2023-02-18T08:14:06;96620.81;;;7.37;100.00
29379;BME280;16362;47.202;15.258;2023-02-18T08:16:34;96633.53;;;7.34;100.00
29379;BME280;16362;47.202;15.258;2023-02-18T08:19:01;96630.72;;;7.35;100.00
29379;BME280;16362;47.202;15.258;2023-02-18T08:21:29;96632.56;;;7.35;100.00
29379;BME280;16362;47.202;15.258;2023-02-18T08:23:57;96630.44;;;7.38;100.00
29379;BME280;16362;47.202;15.258;2023-02-18T08:26:24;96631.25;;;7.49;100.00
29379;BME280;16362;47.202;15.258;2023-02-18T08:28:51;96623.97;;;7.79;100.00
29379;BME280;16362;47.202;15.258;2023-02-18T08:31:26;96622.50;;;8.12;100.00
29379;BME280;16362;47.202;15.258;2023-02-18T08:33:54;96622.16;;;8.43;100.00
29379;BME280;16362;47.202;15.258;2023-02-18T08:36:21;96614.41;;;8.68;100.00
29379;BME280;16362;47.202;15.258;2023-02-18T08:38:49;96610.59;;;8.70;100.00
29379;BME280;16362;47.202;15.258;2023-02-18T08:41:16;96610.50;;;8.80;100.00
29379;BME280;16362;47.202;15.258;2023-02-18T08:43:45;96620.69;;;8.85;100.00
29379;BME280;16362;47.202;15.258;2023-02-18T08:46:12;96631.69;;;8.90;100.00
29379;BME280;16362;47.202;15.258;2023-02-18T08:48:43;96614.59;;;8.92;100.00
29379;BME280;16362;47.202;15.258;2023-02-18T08:51:16;96619.69;;;9.04;100.00
29379;BME280;16362;47.202;15.258;2023-02-18T08:53:43;96615.84;;;9.33;100.00
29379;BME280;16362;47.202;15.258;2023-02-18T08:56:13;96613.22;;;9.41;100.00
29379;BME280;16362;47.202;15.258;2023-02-18T08:58:40;96615.50;;;9.62;100.00
29379;BME280;16362;47.202;15.258;2023-02-18T09:01:09;96605.69;;;9.71;100.00
29379;BME280;16362;47.202;15.258;2023-02-18T09:03:37;96608.91;;;9.83;100.00
29379;BME280;16362;47.202;15.258;2023-02-18T09:06:04;96600.47;;;10.04;99.20
29379;BME280;16362;47.202;15.258;2023-02-18T09:08:31;96595.88;;;10.39;95.51
29379;BME280;16362;47.202;15.258;2023-02-18T09:11:00;96599.06;;;10.59;95.16
29379;BME280;16362;47.202;15.258;2023-02-18T09:13:27;96594.91;;;10.81;94.50
29379;BME280;16362;47.202;15.258;2023-02-18T09:15:57;96593.03;;;11.06;91.09
29379;BME280;16362;47.202;15.258;2023-02-18T09:18:24;96588.19;;;11.10;92.07
29379;BME280;16362;47.202;15.258;2023-02-18T09:20:55;96586.84;;;11.14;91.83
29379;BME280;16362;47.202;15.258;2023-02-18T09:23:23;96586.16;;;11.28;93.34
29379;BME280;16362;47.202;15.258;2023-02-18T09:25:49;96590.50;;;11.21;93.97
29379;BME280;16362;47.202;15.258;2023-02-18T09:28:16;96588.50;;;11.23;93.64
29379;BME280;16362;47.202;15.258;2023-02-18T09:30:43;96586.13;;;11.37;92.37
29379;BME280;16362;47.202;15.258;2023-02-18T09:33:10;96587.91;;;11.61;88.68
29379;BME280;16362;47.202;15.258;2023-02-18T09:35:44;96579.53;;;11.64;87.80
29379;BME280;16362;47.202;15.258;2023-02-18T09:38:14;96583.97;;;11.80;92.76
29379;BME280;16362;47.202;15.258;2023-02-18T09:40:52;96580.91;;;11.91;92.36
29379;BME280;16362;47.202;15.258;2023-02-18T09:46:02;96563.06;;;12.61;85.59
29379;BME280;16362;47.202;15.258;2023-02-18T09:48:32;96566.91;;;12.82;83.53
29379;BME280;16362;47.202;15.258;2023-02-18T09:50:59;96569.13;;;12.93;85.86
29379;BME280;16362;47.202;15.258;2023-02-18T09:53:26;96563.66;;;13.25;80.87
29379;BME280;16362;47.202;15.258;2023-02-18T09:55:54;96555.28;;;13.43;82.14
29379;BME280;16362;47.202;15.258;2023-02-18T09:58:22;96557.13;;;13.57;81.25
29379;BME280;16362;47.202;15.258;2023-02-18T10:03:25;96538.69;;;14.06;76.94
29379;BME280;16362;47.202;15.258;2023-02-18T10:08:49;96531.16;;;14.59;72.82
29379;BME280;16362;47.202;15.258;2023-02-18T10:11:40;96532.00;;;14.81;72.61
29379;BME280;16362;47.202;15.258;2023-02-18T10:14:12;96522.75;;;14.91;73.01
29379;BME280;16362;47.202;15.258;2023-02-18T10:16:41;96521.25;;;15.10;72.57
29379;BME280;16362;47.202;15.258;2023-02-18T10:19:38;96518.75;;;15.08;70.92
29379;BME280;16362;47.202;15.258;2023-02-18T10:22:08;96514.19;;;15.37;69.16
29379;BME280;16362;47.202;15.258;2023-02-18T10:24:52;96509.69;;;15.51;69.95
29379;BME280;16362;47.202;15.258;2023-02-18T10:27:27;96502.25;;;15.53;68.63
29379;BME280;16362;47.202;15.258;2023-02-18T10:29:59;96501.28;;;15.68;70.88
29379;BME280;16362;47.202;15.258;2023-02-18T10:32:33;96496.81;;;15.81;68.71
29379;BME280;16362;47.202;15.258;2023-02-18T10:35:29;96491.25;;;15.96;67.94
29379;BME280;16362;47.202;15.258;2023-02-18T10:38:13;96491.72;;;16.13;67.41
29379;BME280;16362;47.202;15.258;2023-02-18T10:41:14;96489.88;;;16.27;67.74
29379;BME280;16362;47.202;15.258;2023-02-18T10:46:31;96476.66;;;16.66;54.91
29379;BME280;16362;47.202;15.258;2023-02-18T10:51:57;96461.94;;;16.75;51.25
29379;BME280;16362;47.202;15.258;2023-02-18T10:54:25;96458.38;;;16.75;52.25
29379;BME280;16362;47.202;15.258;2023-02-18T10:56:58;96448.44;;;16.89;50.63
29379;BME280;16362;47.202;15.258;2023-02-18T10:59:31;96441.19;;;16.82;51.68
29379;BME280;16362;47.202;15.258;2023-02-18T11:02:10;96440.94;;;17.11;49.51
29379;BME280;16362;47.202;15.258;2023-02-18T11:04:41;96435.72;;;17.29;48.27
29379;BME280;16362;47.202;15.258;2023-02-18T11:07:25;96443.38;;;17.26;48.86
29379;BME280;16362;47.202;15.258;2023-02-18T11:09:53;96427.69;;;17.09;50.53
29379;BME280;16362;47.202;15.258;2023-02-18T11:12:44;96417.69;;;17.16;49.15
29379;BME280;16362;47.202;15.258;2023-02-18T11:17:40;96409.88;;;16.75;51.01
29379;BME280;16362;47.202;15.258;2023-02-18T11:22:56;96389.22;;;16.42;51.18
29379;BME280;16362;47.202;15.258;2023-02-18T11:25:25;96381.94;;;16.56;50.91
29379;BME280;16362;47.202;15.258;2023-02-18T11:27:58;96382.97;;;16.48;48.92
29379;BME280;16362;47.202;15.258;2023-02-18T11:30:32;96365.97;;;16.54;49.47
29379;BME280;16362;47.202;15.258;2023-02-18T11:33:06;96370.16;;;16.37;50.93
29379;BME280;16362;47.202;15.258;2023-02-18T11:35:34;96361.88;;;16.25;51.91
29379;BME280;16362;47.202;15.258;2023-02-18T11:38:03;96360.63;;;16.21;51.56
29379;BME280;16362;47.202;15.258;2023-02-18T11:40:42;96343.22;;;16.10;50.47
29379;BME280;16362;47.202;15.258;2023-02-18T11:43:14;96337.63;;;16.18;49.92
29379;BME280;16362;47.202;15.258;2023-02-18T11:45:42;96346.13;;;16.08;50.00
29379;BME280;16362;47.202;15.258;2023-02-18T11:48:22;96327.28;;;16.22;48.83
29379;BME280;16362;47.202;15.258;2023-02-18T11:50:51;96331.22;;;16.32;50.50
29379;BME280;16362;47.202;15.258;2023-02-18T11:53:31;96321.47;;;16.38;52.17
29379;BME280;16362;47.202;15.258;2023-02-18T11:56:01;96310.91;;;16.37;49.88
29379;BME280;16362;47.202;15.258;2023-02-18T11:58:37;96304.69;;;16.36;48.83
29379;BME280;16362;47.202;15.258;2023-02-18T12:01:11;96300.13;;;16.37;45.33
29379;BME280;16362;47.202;15.258;2023-02-18T12:06:25;96286.22;;;16.53;41.29
29379;BME280;16362;47.202;15.258;2023-02-18T12:08:58;96274.53;;;16.79;35.41
29379;BME280;16362;47.202;15.258;2023-02-18T12:11:33;96272.19;;;16.96;37.48
29379;BME280;16362;47.202;15.258;2023-02-18T12:14:01;96264.97;;;16.90;38.68
29379;BME280;16362;47.202;15.258;2023-02-18T12:27:52;96237.66;;;16.08;36.57
29379;BME280;16362;47.202;15.258;2023-02-18T12:30:40;96227.63;;;16.35;37.79
29379;BME280;16362;47.202;15.258;2023-02-18T12:33:27;96216.81;;;16.48;39.24
29379;BME280;16362;47.202;15.258;2023-02-18T12:36:06;96206.66;;;16.44;37.27
29379;BME280;16362;47.202;15.258;2023-02-18T12:50:08;96212.63;;;15.74;48.57
29379;BME280;16362;47.202;15.258;2023-02-18T12:52:53;96207.41;;;15.79;47.55
29379;BME280;16362;47.202;15.258;2023-02-18T13:11:35;96191.28;;;15.12;50.39
29379;BME280;16362;47.202;15.258;2023-02-18T13:14:28;96189.19;;;14.87;52.18
29379;BME280;16362;47.202;15.258;2023-02-18T13:16:57;96179.47;;;14.79;52.78
29379;BME280;16362;47.202;15.258;2023-02-18T13:22:05;96170.78;;;14.84;50.88
29379;BME280;16362;47.202;15.258;2023-02-18T13:24:34;96164.69;;;14.55;53.21
29379;BME280;16362;47.202;15.258;2023-02-18T13:32:34;96145.72;;;14.08;54.76
29379;BME280;16362;47.202;15.258;2023-02-18T13:40:44;96136.88;;;14.63;52.91
29379;BME280;16362;47.202;15.258;2023-02-18T13:43:28;96134.34;;;14.55;53.32
29379;BME280;16362;47.202;15.258;2023-02-18T13:46:18;96131.91;;;14.73;51.31
29379;BME280;16362;47.202;15.258;2023-02-18T13:48:50;96127.19;;;14.82;51.65
29379;BME280;16362;47.202;15.258;2023-02-18T13:51:31;96121.16;;;14.67;52.53
29379;BME280;16362;47.202;15.258;2023-02-18T13:54:10;96120.03;;;14.41;53.90
29379;BME280;16362;47.202;15.258;2023-02-18T13:57:30;96115.63;;;14.13;54.58
29379;BME280;16362;47.202;15.258;2023-02-18T13:59:39;96112.59;;;13.88;57.75
29379;BME280;16362;47.202;15.258;2023-02-18T14:18:19;96094.13;;;13.08;62.84
29379;BME280;16362;47.202;15.258;2023-02-18T14:25:51;96094.31;;;12.78;64.42
29379;BME280;16362;47.202;15.258;2023-02-18T14:28:49;96093.84;;;12.74;65.14
29379;BME280;16362;47.202;15.258;2023-02-18T14:31:36;96095.25;;;12.70;65.85
29379;BME280;16362;47.202;15.258;2023-02-18T14:43:05;96080.72;;;12.36;67.49
29379;BME280;16362;47.202;15.258;2023-02-18T14:45:57;96086.59;;;12.25;67.03
29379;BME280;16362;47.202;15.258;2023-02-18T14:51:24;96077.47;;;12.19;68.60
29379;BME280;16362;47.202;15.258;2023-02-18T14:53:52;96083.25;;;12.23;68.81
29379;BME280;16362;47.202;15.258;2023-02-18T14:56:20;96079.88;;;12.14;69.29
29379;BME280;16362;47.202;15.258;2023-02-18T14:58:50;96088.66;;;12.08;69.91
29379;BME280;16362;47.202;15.258;2023-02-18T15:01:30;96084.91;;;12.02;70.34
29379;BME280;16362;47.202;15.258;2023-02-18T15:03:57;96085.09;;;12.01;70.11
29379;BME280;16362;47.202;15.258;2023-02-18T15:06:34;96077.34;;;11.91;70.52
29379;BME280;16362;47.202;15.258;2023-02-18T15:09:21;96075.03;;;11.73;71.54
29379;BME280;16362;47.202;15.258;2023-02-18T15:11:49;96080.06;;;11.61;71.47
29379;BME280;16362;47.202;15.258;2023-02-18T15:14:19;96074.16;;;11.51;71.86
29379;BME280;16362;47.202;15.258;2023-02-18T15:16:47;96087.88;;;11.48;72.91
29379;BME280;16362;47.202;15.258;2023-02-18T15:19:21;96081.59;;;11.40;74.14
29379;BME280;16362;47.202;15.258;2023-02-18T15:21:49;96074.44;;;11.26;74.17
29379;BME280;16362;47.202;15.258;2023-02-18T15:27:00;96073.66;;;11.02;75.80
29379;BME280;16362;47.202;15.258;2023-02-18T15:29:32;96070.16;;;11.02;76.05
29379;BME280;16362;47.202;15.258;2023-02-18T15:31:59;96069.22;;;10.94;76.26